Terminal Aerodrome Forecast
Issued by NWS Cleveland, OH

Home | Current Version | Previous Version | Text Only | Print | Product List | Glossary On
Versions: 1 2 3 4 5 6 7 8 9 10 11 12 13 14 15 16 17 18 19 20 21 22 23 24 25
486
FTUS41 KCLE 010408 AAB
TAFTOL
TAF AMD
KTOL 010408Z 0104/0124 12005KT 5SM BR BKN003 OVC060
      TEMPO 0104/0108 3SM BR OVC003
     FM010900 19012G25KT P6SM -SHRA OVC050
      TEMPO 0109/0111 3SM TSRA OVC025CB
     FM011300 22018G32KT P6SM OVC040=

USA.gov is the U.S. government's official web portal to all federal, state and local government web resources and services.